Latest Weather Observations for Albury

IDV60801

Issued at 4:05 pm EST Sunday 31 August 2014 (issued every 30 minutes, with the page automatically refreshed every 10 minutes)

About weather observations | Map of weather stations | Latest weather observations for VIC | Other Formats
Station Details ID: 072160 Name: ALBURY AIRPORT AWS Lat: -36.07 Lon: 146.95 Height: 163.5 m
Data from the previous 72 hours. | See also: Recent months at Albury
Date/Time
EST
Temp
°C
App
Temp
°C
Dew
Point
Rel
Hum
%
Delta-T
°C
Wind Press
QNH
hPa
Press
MSL
hPa
Rain
since 9 am
mm
Dir
 
Spd
km/h
Gust
km/h
Spd
kts
Gust
kts
31/04:00pm 18.7 16.6 8.4 51 5.4 NNE 9 13 5 7 1017.1 1017.3 0.0
31/03:30pm 18.9 16.5 8.6 51 5.4 ESE 11 15 6 8 1017.4 1017.6 0.0
31/03:00pm 18.2 15.4 8.7 54 5.0 ESE 13 19 7 10 1017.6 1017.8 0.0
31/02:30pm 18.2 15.9 9.0 55 4.8 S 11 15 6 8 1018.0 1018.2 0.0
31/02:00pm 18.7 16.4 7.5 48 5.7 E 9 13 5 7 1018.2 1018.4 0.0
31/01:30pm 17.8 15.0 7.0 49 5.4 NNE 11 17 6 9 1018.6 1018.8 0.0
31/01:00pm 18.2 16.5 8.5 53 5.0 ENE 7 13 4 7 1019.3 1019.6 0.0
31/12:30pm 16.9 15.1 9.6 62 3.8 ESE 9 13 5 7 1019.7 1020.0 0.0
31/12:00pm 16.6 15.5 10.7 68 3.2 ESE 7 13 4 7 1020.3 1020.6 0.0
31/11:30am 16.0 15.1 10.7 71 2.8 SE 6 11 3 6 1020.7 1021.0 0.0
31/11:00am 14.2 12.7 9.2 72 2.6 SSE 7 9 4 5 1021.4 1021.7 0.0
31/10:30am 12.8 10.8 8.7 76 2.1 SE 9 13 5 7 1021.8 1022.1 0.0
31/10:00am 12.5 10.9 8.6 77 1.9 E 7 11 4 6 1022.3 1022.5 0.0
31/09:30am 11.2 9.0 7.9 80 1.6 E 9 13 5 7 1022.5 1022.7 0.0
31/09:00am 10.1 8.6 7.0 81 1.5 E 4 9 2 5 1022.9 1023.1 0.0
31/08:30am 8.5 7.7 6.3 86 1.0 CALM 0 0 0 0 1022.9 1023.1 0.0
31/08:00am 6.8 5.9 5.9 94 0.4 CALM 0 0 0 0 1022.7 1022.9 0.0
31/07:30am 5.2 4.1 5.2 100 0.0 CALM 0 0 0 0 1022.5 1022.7 0.0
31/07:00am 3.2 1.7 2.9 98 0.1 CALM 0 0 0 0 1022.3 1022.5 0.0
31/06:30am 2.8 1.2 2.7 99 0.0 CALM 0 0 0 0 1021.9 1022.2 0.0
31/06:23am 3.1 1.6 3.0 99 0.0 CALM 0 0 0 0 1021.8 1022.1 0.0
31/06:00am 3.4 2.0 3.3 99 0.0 ENE 0 0 0 0 1021.6 1021.9 0.0
31/05:58am 3.3 1.8 3.2 99 0.0 CALM 0 0 0 0 1021.6 1021.9 0.0
31/05:30am 3.3 1.8 3.0 98 0.1 CALM 0 0 0 0 1021.3 1021.6 0.0
31/05:00am 3.7 1.5 3.6 99 0.0 ENE 4 7 2 4 1021.1 1021.4 0.0
31/04:30am 3.2 1.7 2.8 97 0.2 CALM 0 0 0 0 1021.1 1021.4 0.0
31/04:16am 4.0 2.6 3.6 97 0.2 CALM 0 0 0 0 1021.1 1021.4 0.0
31/04:00am 3.8 2.4 3.4 97 0.2 CALM 0 0 0 0 1021.1 1021.4 0.0
31/03:47am 4.0 2.6 3.6 97 0.2 CALM 0 0 0 0 1021.1 1021.4 0.0
31/03:30am 3.9 2.5 3.5 97 0.2 CALM 0 0 0 0 1021.1 1021.4 0.0
31/03:18am 3.8 2.4 3.4 97 0.2 CALM 0 0 0 0 1021.2 1021.5 0.0
31/03:06am 4.3 3.0 4.0 98 0.1 CALM 0 0 0 0 1021.2 1021.5 0.0
31/03:00am 4.2 2.9 3.9 98 0.1 CALM 0 0 0 0 1021.3 1021.6 0.0
31/02:54am 4.6 3.3 4.3 98 0.1 CALM 0 0 0 0 1021.4 1021.7 0.0
31/02:30am 4.7 3.4 4.3 97 0.2 CALM 0 0 0 0 1021.5 1021.8 0.0
31/02:13am 5.1 3.9 4.5 96 0.3 CALM 0 0 0 0 1021.7 1022.0 0.0
31/02:00am 5.2 4.0 4.6 96 0.3 CALM 0 0 0 0 1021.8 1022.1 0.0
31/01:30am 5.8 4.4 5.5 98 0.1 NW 2 6 1 3 1022.2 1022.4 0.0
31/01:00am 5.8 4.4 5.5 98 0.1 NNW 2 7 1 4 1022.4 1022.6 0.0
31/12:30am 5.1 2.7 4.2 94 0.4 ENE 6 7 3 4 1022.6 1022.8 0.0
31/12:00am 5.8 4.7 5.1 95 0.3 ENE 0 0 0 0 1022.8 1023.0 0.0
 
Date/Time
EST
Temp
°C
App
Temp
°C
Dew
Point
Rel
Hum
%
Delta-T
°C
Wind Press
QNH
hPa
Press
MSL
hPa
Rain
since 9 am
mm
Dir
 
Spd
km/h
Gust
km/h
Spd
kts
Gust
kts
30/11:30pm 6.2 5.2 5.8 97 0.2 CALM 0 0 0 0 1022.9 1023.1 0.0
30/11:00pm 6.8 5.9 6.2 96 0.3 CALM 0 0 0 0 1023.0 1023.2 0.0
30/10:30pm 6.7 5.0 5.8 94 0.4 ENE 4 6 2 3 1022.9 1023.1 0.0
30/10:00pm 7.1 4.9 5.4 89 0.8 E 6 7 3 4 1023.1 1023.3 0.0
30/09:30pm 8.3 7.6 7.1 92 0.6 CALM 0 0 0 0 1023.2 1023.4 0.0
30/09:00pm 8.1 7.2 6.1 87 0.9 CALM 0 0 0 0 1023.0 1023.2 0.0
30/08:30pm 9.3 8.5 6.7 84 1.2 CALM 0 0 0 0 1023.0 1023.2 0.0
30/08:00pm 10.7 9.3 7.4 80 1.6 ENE 4 6 2 3 1022.9 1023.1 0.0
30/07:30pm 11.3 9.9 7.2 76 2.0 N 4 7 2 4 1022.8 1023.0 0.0
30/07:00pm 12.0 9.9 6.5 69 2.6 NNW 7 7 4 4 1022.7 1022.9 0.0
30/06:30pm 14.2 12.2 7.0 62 3.5 NNW 7 9 4 5 1022.6 1022.8 0.0
30/06:00pm 15.5 13.4 6.8 56 4.3 NW 7 9 4 5 1022.5 1022.7 0.0
30/05:30pm 16.0 13.3 7.2 56 4.4 WNW 11 13 6 7 1022.4 1022.6 0.0
30/05:00pm 17.4 14.5 8.0 54 4.8 WNW 13 17 7 9 1022.5 1022.7 0.0
30/04:30pm 18.0 14.8 6.8 48 5.6 W 13 17 7 9 1022.6 1022.8 0.0
30/04:00pm 18.6 16.0 6.1 44 6.2 W 9 15 5 8 1022.7 1022.9 0.0
30/03:30pm 18.5 14.8 6.4 45 6.1 W 15 19 8 10 1022.7 1022.9 0.0
30/03:00pm 18.5 15.3 8.5 52 5.2 W 15 20 8 11 1022.7 1022.9 0.0
30/02:30pm 18.1 14.7 7.8 51 5.3 WSW 15 20 8 11 1023.0 1023.2 0.0
30/02:00pm 18.3 16.2 8.3 52 5.2 W 9 17 5 9 1023.2 1023.4 0.0
30/01:30pm 18.5 16.8 8.2 51 5.3 NNW 7 13 4 7 1023.5 1023.7 0.0
30/01:00pm 18.2 16.0 6.1 45 6.0 W 7 19 4 10 1024.1 1024.4 0.0
30/12:30pm 17.5 14.4 3.8 40 6.5 NW 9 11 5 6 1024.7 1025.0 0.0
30/12:00pm 16.8 15.1 5.7 48 5.4 NE 4 9 2 5 1025.2 1025.5 0.0
30/11:30am 16.9 15.1 7.3 53 4.8 NNE 6 9 3 5 1025.8 1026.1 0.0
30/11:00am 15.1 13.7 7.4 60 3.8 E 4 9 2 5 1026.3 1026.6 0.0
30/10:30am 14.0 12.3 8.2 68 2.9 E 7 9 4 5 1026.7 1027.0 0.0
30/10:00am 12.9 11.6 7.6 70 2.6 NE 4 9 2 5 1026.9 1027.2 0.0
30/09:30am 11.5 10.9 7.2 75 2.1 CALM 0 0 0 0 1027.0 1027.3 0.0
30/09:00am 10.0 9.2 6.5 79 1.6 CALM 0 0 0 0 1027.1 1027.4 0.0
30/08:30am 7.9 5.2 5.5 85 1.1 S 9 11 5 6 1027.1 1027.4 0.0
30/08:00am 7.5 6.3 6.3 92 0.5 SE 2 9 1 5 1026.8 1027.1 0.0
30/07:30am 4.8 3.6 4.7 99 0.0 CALM 0 0 0 0 1026.8 1027.1 0.0
30/07:00am 3.3 1.9 3.3 100 0.0 CALM 0 0 0 0 1026.5 1026.8 0.0
30/06:35am 2.6 1.0 2.5 99 0.0 CALM 0 0 0 0 1026.4 1026.7 0.0
30/06:30am 3.0 1.1 2.9 99 0.0 NE 2 6 1 3 1026.4 1026.7 0.0
30/06:00am 3.2 1.3 2.9 98 0.1 NE 2 9 1 5 1026.1 1026.4 0.0
30/05:58am 2.3 0.2 2.0 98 0.1 NE 2 9 1 5 1026.1 1026.4 0.0
30/05:42am 2.9 1.3 2.6 98 0.1 CALM 0 0 0 0 1026.1 1026.4 0.0
30/05:30am 3.6 2.2 3.6 100 0.0 CALM 0 0 0 0 1026.0 1026.3 0.0
30/05:00am 3.2 1.7 3.1 99 0.0 CALM 0 0 0 0 1025.9 1026.2 0.0
30/04:52am 3.5 2.1 3.4 99 0.0 CALM 0 0 0 0 1025.9 1026.2 0.0
30/04:33am 3.8 2.4 3.7 99 0.0 CALM 0 0 0 0 1025.8 1026.1 0.0
30/04:30am 3.7 2.3 3.6 99 0.0 CALM 0 0 0 0 1025.8 1026.1 0.0
30/04:03am 3.9 2.5 3.6 98 0.1 CALM 0 0 0 0 1025.8 1026.1 0.0
30/04:00am 3.9 2.5 3.6 98 0.1 CALM 0 0 0 0 1025.8 1026.1 0.0
30/03:30am 3.5 2.0 3.1 97 0.2 CALM 0 0 0 0 1025.7 1026.0 0.0
30/03:00am 4.3 2.3 4.2 99 0.0 N 4 6 2 3 1025.9 1026.2 0.0
30/02:57am 4.7 2.4 4.6 99 0.0 N 6 7 3 4 1025.9 1026.2 0.0
30/02:33am 5.0 3.1 4.7 98 0.1 N 4 7 2 4 1025.8 1026.1 0.0
30/02:30am 5.0 3.1 4.7 98 0.1 N 4 6 2 3 1025.9 1026.2 0.0
30/02:00am 5.1 3.9 4.8 98 0.1 CALM 0 0 0 0 1026.0 1026.3 0.0
30/01:42am 5.3 3.0 5.0 98 0.1 NNW 6 7 3 4 1025.9 1026.2 0.0
30/01:30am 5.1 3.6 4.8 98 0.1 N 2 7 1 4 1025.9 1026.2 0.0
30/01:00am 5.7 4.6 5.3 97 0.2 CALM 0 0 0 0 1026.0 1026.3 0.0
30/12:45am 5.9 4.9 5.5 97 0.2 CALM 0 0 0 0 1025.9 1026.2 0.0
30/12:30am 6.0 5.0 5.4 96 0.3 CALM 0 0 0 0 1025.9 1026.2 0.0
30/12:00am 6.3 5.3 5.4 94 0.4 CALM 0 0 0 0 1025.9 1026.2 0.0
 
Date/Time
EST
Temp
°C
App
Temp
°C
Dew
Point
Rel
Hum
%
Delta-T
°C
Wind Press
QNH
hPa
Press
MSL
hPa
Rain
since 9 am
mm
Dir
 
Spd
km/h
Gust
km/h
Spd
kts
Gust
kts
29/11:30pm 7.0 6.1 6.1 94 0.4 CALM 0 0 0 0 1025.9 1026.2 0.0
29/11:00pm 7.4 6.6 6.5 94 0.4 CALM 0 0 0 0 1025.8 1026.1 0.0
29/10:30pm 8.1 6.3 7.3 95 0.4 NNW 6 7 3 4 1026.0 1026.3 0.0
29/10:00pm 7.7 6.2 6.6 93 0.5 E 4 6 2 3 1026.0 1026.3 0.0
29/09:30pm 8.4 6.4 7.0 91 0.7 ENE 7 9 4 5 1026.0 1026.3 0.0
29/09:00pm 9.2 7.6 8.0 92 0.6 NE 6 7 3 4 1025.9 1026.2 0.0
29/08:30pm 9.5 8.6 7.9 90 0.8 SSE 2 7 1 4 1025.9 1026.2 0.0
29/08:00pm 10.6 8.9 7.7 82 1.4 ESE 6 7 3 4 1025.9 1026.2 0.0
29/07:30pm 11.7 10.1 8.2 79 1.7 N 6 7 3 4 1025.5 1025.8 0.0
29/07:00pm 12.5 12.1 8.2 75 2.1 CALM 0 0 0 0 1025.4 1025.7 0.0
29/06:30pm 14.3 12.5 8.0 66 3.2 NNW 7 7 4 4 1025.3 1025.6 0.0
29/06:00pm 15.3 13.8 9.2 67 3.1 NW 7 13 4 7 1025.0 1025.3 0.0
29/05:30pm 16.1 14.2 9.1 63 3.6 WNW 9 13 5 7 1024.8 1025.1 0.0
29/05:00pm 17.8 15.8 10.2 61 4.1 WNW 11 13 6 7 1024.6 1024.9 0.0
29/04:30pm 18.2 15.8 10.1 59 4.3 WNW 13 17 7 9 1024.6 1024.9 0.0
29/04:00pm 18.8 17.1 9.8 56 4.8 WNW 9 15 5 8 1024.8 1025.1 0.0
29/03:30pm 18.8 16.9 10.4 58 4.5 W 11 15 6 8 1024.7 1025.0 0.0
29/03:00pm 18.7 16.7 8.7 52 5.2 WSW 9 15 5 8 1025.0 1025.3 0.0
29/02:30pm 18.8 17.2 8.7 52 5.3 WNW 7 11 4 6 1025.4 1025.7 0.0
29/02:00pm 18.5 17.0 9.3 55 4.8 NW 7 11 4 6 1025.8 1026.1 0.0
29/01:30pm 17.4 15.7 8.5 56 4.6 SSE 7 15 4 8 1026.1 1026.4 0.0
29/01:00pm 17.1 14.9 8.0 55 4.6 SW 9 11 5 6 1026.4 1026.7 0.0
29/12:30pm 16.6 15.0 8.6 59 4.1 E 7 11 4 6 1026.9 1027.2 0.0
29/12:00pm 15.7 14.1 8.2 61 3.8 ENE 6 9 3 5 1027.5 1027.8 0.0
29/11:30am 15.0 13.5 8.5 65 3.3 ESE 6 7 3 4 1028.0 1028.3 0.0
29/11:00am 13.6 12.0 8.2 70 2.7 SSE 6 9 3 5 1028.3 1028.6 0.0
29/10:30am 13.1 11.7 7.3 68 2.8 E 4 7 2 4 1028.6 1028.8 0.0
29/10:00am 12.4 10.9 8.3 76 2.0 E 6 9 3 5 1028.8 1029.0 0.0
29/09:30am 10.5 8.6 6.5 76 1.9 ENE 6 9 3 5 1029.0 1029.3 0.0
29/09:00am 9.2 7.1 5.8 79 1.6 E 6 9 3 5 1029.3 1029.6 0.0
29/08:30am 7.5 6.4 5.1 85 1.1 CALM 0 0 0 0 1029.2 1029.5 0.0
29/08:00am 7.3 5.7 6.4 94 0.4 ENE 4 6 2 3 1029.1 1029.4 0.0
29/07:30am 4.6 3.4 4.5 99 0.0 CALM 0 0 0 0 1029.0 1029.3 0.0
29/07:00am 3.2 1.7 3.1 99 0.0 CALM 0 0 0 0 1028.7 1028.9 0.0
29/06:44am 2.9 1.4 2.8 99 0.0 CALM 0 0 0 0 1028.4 1028.7 0.0
29/06:30am 2.8 1.2 2.5 98 0.1 CALM 0 0 0 0 1028.3 1028.6 0.0
29/06:14am 2.5 0.8 2.1 97 0.2 CALM 0 0 0 0 1028.1 1028.4 0.0
29/06:00am 2.9 1.3 2.5 97 0.2 CALM 0 0 0 0 1028.0 1028.3 0.0
29/05:30am 3.2 1.7 2.9 98 0.1 CALM 0 0 0 0 1027.9 1028.2 0.0
29/05:00am 3.4 0.8 3.1 98 0.1 N 6 7 3 4 1027.8 1028.1 0.0
29/04:30am 3.6 1.1 3.5 99 0.0 NW 6 7 3 4 1027.7 1028.0 0.0
29/04:10am 3.1 1.6 3.0 99 0.0 CALM 0 6 0 3 1027.6 1027.9 0.0
29/04:00am 4.2 2.5 4.1 99 0.0 W 2 6 1 3 1027.6 1027.9 0.0
29/03:54am 4.0 1.5 3.9 99 0.0 W 6 6 3 3 1027.6 1027.9 0.0
29/03:30am 3.9 2.5 3.6 98 0.1 CALM 0 0 0 0 1027.5 1027.8 0.0
29/03:18am 3.7 2.3 3.3 97 0.2 CALM 0 0 0 0 1027.7 1028.0 0.0
29/03:00am 4.0 2.6 3.6 97 0.2 CALM 0 0 0 0 1027.8 1028.1 0.0
29/02:52am 3.8 2.4 3.4 97 0.2 CALM 0 0 0 0 1027.8 1028.1 0.0
29/02:30am 4.1 2.7 3.5 96 0.2 CALM 0 0 0 0 1027.9 1028.2 0.0
29/02:00am 4.5 2.8 3.9 96 0.3 ENE 2 6 1 3 1028.0 1028.3 0.0
29/01:30am 4.9 3.6 4.2 95 0.3 CALM 0 0 0 0 1028.2 1028.5 0.0
29/01:00am 5.0 3.7 4.1 94 0.4 CALM 0 0 0 0 1028.4 1028.7 0.0
29/12:30am 5.6 4.5 4.9 95 0.3 CALM 0 0 0 0 1028.4 1028.7 0.0
29/12:00am 5.7 4.6 5.0 95 0.3 CALM 0 0 0 0 1028.6 1028.8 0.0
 
Date/Time
EST
Temp
°C
App
Temp
°C
Dew
Point
Rel
Hum
%
Delta-T
°C
Wind Press
QNH
hPa
Press
MSL
hPa
Rain
since 9 am
mm
Dir
 
Spd
km/h
Gust
km/h
Spd
kts
Gust
kts
28/11:30pm 5.7 4.5 4.7 93 0.4 CALM 0 0 0 0 1028.4 1028.7 0.0
28/11:00pm 6.6 5.6 5.6 93 0.4 CALM 0 0 0 0 1028.3 1028.6 0.0
28/10:30pm 7.0 6.1 5.9 93 0.5 CALM 0 0 0 0 1028.3 1028.6 0.0
28/10:00pm 7.1 5.7 5.7 91 0.6 E 2 6 1 3 1028.4 1028.7 0.0
28/09:30pm 7.9 6.2 6.0 88 0.9 ESE 4 6 2 3 1028.4 1028.7 0.0
28/09:00pm 8.0 7.1 6.0 87 0.9 CALM 0 0 0 0 1028.3 1028.6 0.0
28/08:30pm 8.8 7.5 6.1 83 1.2 ENE 2 6 1 3 1028.2 1028.5 0.0
28/08:00pm 10.4 8.9 6.9 79 1.7 ENE 4 6 2 3 1028.0 1028.3 0.0
28/07:30pm 11.7 10.6 6.8 72 2.4 N 2 6 1 3 1027.7 1028.0 0.0
28/07:00pm 12.9 11.5 7.4 69 2.7 NW 4 6 2 3 1027.6 1027.9 0.0
28/06:30pm 13.1 11.1 7.1 67 2.9 NW 7 11 4 6 1027.6 1027.9 0.0
28/06:00pm 13.5 10.5 7.5 67 2.9 W 13 15 7 8 1027.3 1027.6 0.0
28/05:30pm 15.2 12.2 7.7 61 3.8 WNW 13 17 7 9 1027.1 1027.4 0.0
28/05:00pm 16.6 13.6 7.8 56 4.4 WNW 13 19 7 10 1026.9 1027.2 0.0
28/04:30pm 17.4 14.5 8.0 54 4.8 W 13 19 7 10 1026.8 1027.1 0.0

Other Formats:

Comma delimited format used in spreadsheet applications
http://www.bom.gov.au/fwo/IDV60801/IDV60801.95896.axf

JavaScript Object Notation format (JSON) in row-major order
http://www.bom.gov.au/fwo/IDV60801/IDV60801.95896.json